»·PEaware :: SWA455 KPDX-KSEA

SWA455 :: KPDX-KSEA

FLIGHT INFORMATION

Flight Status: Arrived
Operator:
Southwest Airlines
More flights by this operator :: More flights under this callsign
Pilot: James J. (11409)
Aircraft: BOEING 737-800
(B738)
More flights by this aircraft type
Origin: KPDX Portland Intl
United States
Destination: KSEA Seattle-Tacoma Intl
United States
More flights between these airports :: More routes between these airports
Route: PTLD1 COUGA KRIEG HAWKZ7
File this flight plan on PilotEdge
Remarks: RMK / SIMBRIEF
Altitude:
(Current/Filed)
20,000ft
Speed:
(Current/Filed)
415kts
Departed: 13-Feb-21 09:15 PM
Arrived: 13-Feb-21 09:55 PM
Distance/Time
Traveled:
113nm/0:40
Distance/Time
To Go:
Arrived

Flight Plot

Page will automatically refresh every two minutes.

Flight plan parsing failed; only flown route is shown


Map Options




Map Legend


Flown Route
Filed Route
Departure Airport
Arrival Airport
Navaid (VOR, NDB)
Fix

Horizontal Profiles

Position Reports

Time Latitude Longitude Heading Altitude Ground
Speed
13-Feb-21 20:36 45.588829 -122.597396 29 24ft 0kts
13-Feb-21 20:37 45.588829 -122.597397 29 24ft 0kts
13-Feb-21 20:38 45.588829 -122.597396 29 24ft 0kts
13-Feb-21 20:41 45.588829 -122.597397 28 24ft 0kts
13-Feb-21 20:42 45.588829 -122.597397 28 24ft 0kts
13-Feb-21 20:43 45.588829 -122.597397 28 24ft 0kts
13-Feb-21 20:44 45.588829 -122.597397 28 24ft 0kts
13-Feb-21 20:45 45.588829 -122.597397 28 24ft 0kts
13-Feb-21 20:46 45.588829 -122.597397 28 24ft 0kts
13-Feb-21 20:47 45.588829 -122.597397 28 24ft 0kts
13-Feb-21 20:48 45.588829 -122.597397 28 24ft 0kts
13-Feb-21 20:49 45.588829 -122.597397 28 24ft 0kts
13-Feb-21 20:50 45.588829 -122.597397 28 24ft 0kts
13-Feb-21 20:51 45.588829 -122.597397 28 24ft 0kts
13-Feb-21 20:52 45.588829 -122.597397 28 24ft 0kts
13-Feb-21 20:53 45.588829 -122.597397 28 24ft 0kts
13-Feb-21 20:54 45.588829 -122.597396 28 24ft 0kts
13-Feb-21 20:55 45.588829 -122.597397 28 24ft 0kts
13-Feb-21 20:56 45.588829 -122.597397 28 24ft 0kts
13-Feb-21 20:57 45.588829 -122.597397 28 24ft 0kts
13-Feb-21 20:58 45.588829 -122.597397 28 24ft 0kts
13-Feb-21 20:59 45.588829 -122.597397 28 24ft 0kts
13-Feb-21 21:00 45.588829 -122.597397 28 24ft 0kts
13-Feb-21 21:01 45.588829 -122.597397 28 24ft 0kts
13-Feb-21 21:02 45.588830 -122.597396 29 24ft 0kts
13-Feb-21 21:03 45.588547 -122.597599 24 24ft 3kts
13-Feb-21 21:04 45.588276 -122.598159 253 24ft 2kts
13-Feb-21 21:05 45.588276 -122.598183 262 24ft 0kts
13-Feb-21 21:06 45.589597 -122.602063 271 23ft 0kts
13-Feb-21 21:07 45.590107 -122.603579 246 24ft 6kts
13-Feb-21 21:08 45.591785 -122.608063 295 24ft 29kts
13-Feb-21 21:09 45.595668 -122.617981 298 24ft 31kts
13-Feb-21 21:10 45.596121 -122.620412 219 24ft 0kts
13-Feb-21 21:11 45.596121 -122.620412 219 24ft 0kts
13-Feb-21 21:12 45.596116 -122.620417 220 24ft 0kts
13-Feb-21 21:13 45.594808 -122.620552 109 24ft 0kts
13-Feb-21 21:14 45.584876 -122.595258 120 388ft 154kts
13-Feb-21 21:15 45.579968 -122.528975 104 2622ft 199kts
13-Feb-21 21:16 45.571745 -122.445748 100 4523ft 233kts
13-Feb-21 21:17 45.556815 -122.347561 85 7377ft 265kts
13-Feb-21 21:18 45.600401 -122.274398 15 10174ft 264kts
13-Feb-21 21:19 45.673010 -122.285293 324 11794ft 309kts
13-Feb-21 21:20 45.746954 -122.353826 322 14524ft 318kts
13-Feb-21 21:21 45.822026 -122.423713 321 16555ft 319kts
13-Feb-21 21:22 45.895803 -122.492566 320 19138ft 317kts
13-Feb-21 21:23 45.971434 -122.563587 320 20092ft 334kts
13-Feb-21 21:24 46.049118 -122.636708 320 20083ft 335kts
13-Feb-21 21:25 46.137020 -122.685955 341 20097ft 355kts
13-Feb-21 21:26 46.235146 -122.705458 342 20096ft 356kts
13-Feb-21 21:27 46.334405 -122.722999 348 20095ft 371kts
13-Feb-21 21:28 46.437756 -122.726858 349 20092ft 388kts
13-Feb-21 21:29 46.549206 -122.730935 349 20060ft 406kts
13-Feb-21 21:30 46.657855 -122.734465 350 18210ft 368kts
13-Feb-21 21:31 46.750888 -122.737455 350 17165ft 313kts
13-Feb-21 21:32 46.836041 -122.678803 33 15409ft 363kts
13-Feb-21 21:33 46.914030 -122.589067 32 13542ft 343kts
13-Feb-21 21:34 46.991991 -122.538215 11 12790ft 287kts
13-Feb-21 21:35 47.063620 -122.507048 11 12123ft 250kts
13-Feb-21 21:36 47.124812 -122.491929 1 11571ft 213kts
13-Feb-21 21:37 47.180031 -122.482061 1 11125ft 242kts
13-Feb-21 21:38 47.253015 -122.470485 1 10754ft 275kts
13-Feb-21 21:39 47.328624 -122.458943 3 8419ft 271kts
13-Feb-21 21:40 47.395796 -122.455189 357 7511ft 260kts
13-Feb-21 21:41 47.464337 -122.455333 358 6446ft 262kts
13-Feb-21 21:42 47.533066 -122.456060 357 6011ft 235kts
13-Feb-21 21:43 47.592900 -122.456075 359 5686ft 205kts
13-Feb-21 21:44 47.647074 -122.455792 359 4934ft 197kts
13-Feb-21 21:45 47.699308 -122.451673 36 4180ft 183kts
13-Feb-21 21:46 47.706994 -122.387825 94 3309ft 170kts
13-Feb-21 21:47 47.704967 -122.319255 95 2968ft 165kts
13-Feb-21 21:48 47.669569 -122.302600 193 2963ft 182kts
13-Feb-21 21:49 47.625916 -122.310125 180 2950ft 152kts
13-Feb-21 21:50 47.588414 -122.309982 180 2839ft 143kts
13-Feb-21 21:51 47.549205 -122.310357 180 2124ft 140kts
13-Feb-21 21:52 47.511192 -122.310672 179 1373ft 134kts
13-Feb-21 21:53 47.474742 -122.310934 179 667ft 133kts
13-Feb-21 21:54 47.448775 -122.310848 167 403ft 35kts
13-Feb-21 21:55 47.446031 -122.306546 50 393ft 7kts
13-Feb-21 21:56 47.445782 -122.305666 162 393ft 10kts
13-Feb-21 21:57 47.442936 -122.304485 133 386ft 1kts
13-Feb-21 21:58 47.442567 -122.303875 136 384ft 0kts
13-Feb-21 21:59 47.442567 -122.303875 136 384ft 0kts
13-Feb-21 22:01 47.442567 -122.303875 136 384ft 0kts
13-Feb-21 22:02 47.442567 -122.303875 136 384ft 0kts
13-Feb-21 22:03 47.442567 -122.303875 136 384ft 0kts
13-Feb-21 22:04 47.442567 -122.303875 136 384ft 0kts
13-Feb-21 22:05 47.442567 -122.303875 136 384ft 0kts
13-Feb-21 22:06 47.442567 -122.303875 136 384ft 0kts
13-Feb-21 22:07 47.442567 -122.303875 136 384ft 0kts
13-Feb-21 22:08 47.501996 -122.310718 179 1191ft 134kts
13-Feb-21 22:09 47.465192 -122.311039 179 479ft 131kts

Navigation Log

Ident Type
Flight plan parsing failed, navigation log unavailable